sensor_id;sensor_type;location;lat;lon;timestamp;temperature;humidity
46085;DHT22;31823;47.032;8.310;2022-09-09T00:02:03;14.40;99.90
46085;DHT22;31823;47.032;8.310;2022-09-09T00:04:32;14.30;99.90
46085;DHT22;31823;47.032;8.310;2022-09-09T00:21:12;14.00;99.90
46085;DHT22;31823;47.032;8.310;2022-09-09T00:23:45;13.80;99.90
46085;DHT22;31823;47.032;8.310;2022-09-09T00:26:23;13.80;99.90
46085;DHT22;31823;47.032;8.310;2022-09-09T00:31:38;13.80;99.90
46085;DHT22;31823;47.032;8.310;2022-09-09T00:34:21;13.90;99.90
46085;DHT22;31823;47.032;8.310;2022-09-09T00:36:50;13.90;99.90
46085;DHT22;31823;47.032;8.310;2022-09-09T00:39:39;14.00;99.90
46085;DHT22;31823;47.032;8.310;2022-09-09T00:42:20;13.90;99.90
46085;DHT22;31823;47.032;8.310;2022-09-09T00:56:12;13.60;99.90
46085;DHT22;31823;47.032;8.310;2022-09-09T00:58:38;13.60;99.90
46085;DHT22;31823;47.032;8.310;2022-09-09T01:01:07;13.70;99.90
46085;DHT22;31823;47.032;8.310;2022-09-09T01:03:35;13.70;99.90
46085;DHT22;31823;47.032;8.310;2022-09-09T01:17:14;13.70;99.90
46085;DHT22;31823;47.032;8.310;2022-09-09T01:27:43;13.60;99.90
46085;DHT22;31823;47.032;8.310;2022-09-09T01:30:11;13.60;99.90
46085;DHT22;31823;47.032;8.310;2022-09-09T01:38:06;13.40;99.90
46085;DHT22;31823;47.032;8.310;2022-09-09T01:40:31;13.50;99.90
46085;DHT22;31823;47.032;8.310;2022-09-09T01:42:57;13.40;99.90
46085;DHT22;31823;47.032;8.310;2022-09-09T01:45:24;13.30;99.90
46085;DHT22;31823;47.032;8.310;2022-09-09T01:47:52;13.30;99.90
46085;DHT22;31823;47.032;8.310;2022-09-09T01:50:18;13.40;99.90
46085;DHT22;31823;47.032;8.310;2022-09-09T01:52:46;13.50;99.90
46085;DHT22;31823;47.032;8.310;2022-09-09T01:55:12;13.60;99.90
46085;DHT22;31823;47.032;8.310;2022-09-09T01:57:52;13.60;99.90
46085;DHT22;31823;47.032;8.310;2022-09-09T02:00:21;13.70;99.90
46085;DHT22;31823;47.032;8.310;2022-09-09T02:03:07;13.80;99.90
46085;DHT22;31823;47.032;8.310;2022-09-09T02:08:49;13.70;99.90
46085;DHT22;31823;47.032;8.310;2022-09-09T02:13:44;13.80;99.90
46085;DHT22;31823;47.032;8.310;2022-09-09T02:16:56;13.90;99.90
46085;DHT22;31823;47.032;8.310;2022-09-09T02:21:30;14.00;99.90
46085;DHT22;31823;47.032;8.310;2022-09-09T02:23:59;14.10;99.90
46085;DHT22;31823;47.032;8.310;2022-09-09T02:26:26;14.00;99.90
46085;DHT22;31823;47.032;8.310;2022-09-09T02:28:55;13.90;99.90
46085;DHT22;31823;47.032;8.310;2022-09-09T02:31:24;13.80;99.90
46085;DHT22;31823;47.032;8.310;2022-09-09T02:33:54;13.70;99.90
46085;DHT22;31823;47.032;8.310;2022-09-09T02:36:22;13.60;99.90
46085;DHT22;31823;47.032;8.310;2022-09-09T02:38:48;13.70;99.90
46085;DHT22;31823;47.032;8.310;2022-09-09T02:41:20;13.80;99.90
46085;DHT22;31823;47.032;8.310;2022-09-09T02:43:48;13.70;99.90
46085;DHT22;31823;47.032;8.310;2022-09-09T02:52:04;14.20;99.90
46085;DHT22;31823;47.032;8.310;2022-09-09T02:54:38;14.40;99.90
46085;DHT22;31823;47.032;8.310;2022-09-09T02:57:26;14.80;99.90
46085;DHT22;31823;47.032;8.310;2022-09-09T02:59:53;15.00;99.90
46085;DHT22;31823;47.032;8.310;2022-09-09T03:02:22;15.00;99.90
46085;DHT22;31823;47.032;8.310;2022-09-09T03:04:47;15.00;99.90
46085;DHT22;31823;47.032;8.310;2022-09-09T03:07:18;14.50;99.90
46085;DHT22;31823;47.032;8.310;2022-09-09T03:09:44;14.30;99.90
46085;DHT22;31823;47.032;8.310;2022-09-09T03:12:10;14.40;99.90
46085;DHT22;31823;47.032;8.310;2022-09-09T03:14:37;14.40;99.90
46085;DHT22;31823;47.032;8.310;2022-09-09T03:17:04;14.40;99.90
46085;DHT22;31823;47.032;8.310;2022-09-09T03:19:30;14.40;99.90
46085;DHT22;31823;47.032;8.310;2022-09-09T03:21:56;14.40;99.90
46085;DHT22;31823;47.032;8.310;2022-09-09T03:24:21;14.50;99.90
46085;DHT22;31823;47.032;8.310;2022-09-09T03:26:48;14.50;99.90
46085;DHT22;31823;47.032;8.310;2022-09-09T03:29:16;14.50;99.90
46085;DHT22;31823;47.032;8.310;2022-09-09T03:31:43;14.50;99.90
46085;DHT22;31823;47.032;8.310;2022-09-09T03:34:08;14.50;99.90
46085;DHT22;31823;47.032;8.310;2022-09-09T03:36:34;14.40;99.90
46085;DHT22;31823;47.032;8.310;2022-09-09T03:38:59;14.30;99.90
46085;DHT22;31823;47.032;8.310;2022-09-09T03:41:26;14.20;99.90
46085;DHT22;31823;47.032;8.310;2022-09-09T03:43:53;14.30;99.90
46085;DHT22;31823;47.032;8.310;2022-09-09T03:46:20;14.30;99.90
46085;DHT22;31823;47.032;8.310;2022-09-09T03:48:46;14.40;99.90
46085;DHT22;31823;47.032;8.310;2022-09-09T03:51:12;14.20;99.90
46085;DHT22;31823;47.032;8.310;2022-09-09T03:53:38;14.30;99.90
46085;DHT22;31823;47.032;8.310;2022-09-09T03:56:04;14.40;99.90
46085;DHT22;31823;47.032;8.310;2022-09-09T03:58:33;14.30;99.90
46085;DHT22;31823;47.032;8.310;2022-09-09T04:01:01;14.40;99.90
46085;DHT22;31823;47.032;8.310;2022-09-09T04:03:28;14.30;99.90
46085;DHT22;31823;47.032;8.310;2022-09-09T04:05:56;14.30;99.90
46085;DHT22;31823;47.032;8.310;2022-09-09T04:08:22;14.30;99.90
46085;DHT22;31823;47.032;8.310;2022-09-09T04:10:50;14.20;99.90
46085;DHT22;31823;47.032;8.310;2022-09-09T04:13:17;14.10;99.90
46085;DHT22;31823;47.032;8.310;2022-09-09T04:15:50;14.10;99.90
46085;DHT22;31823;47.032;8.310;2022-09-09T04:18:16;14.10;99.90
46085;DHT22;31823;47.032;8.310;2022-09-09T04:20:42;14.20;99.90
46085;DHT22;31823;47.032;8.310;2022-09-09T04:23:09;14.10;99.90
46085;DHT22;31823;47.032;8.310;2022-09-09T04:25:34;14.10;99.90
46085;DHT22;31823;47.032;8.310;2022-09-09T04:28:00;14.00;99.90
46085;DHT22;31823;47.032;8.310;2022-09-09T04:30:25;14.00;99.90
46085;DHT22;31823;47.032;8.310;2022-09-09T04:32:53;13.90;99.90
46085;DHT22;31823;47.032;8.310;2022-09-09T04:35:18;14.00;99.90
46085;DHT22;31823;47.032;8.310;2022-09-09T04:37:45;14.00;99.90
46085;DHT22;31823;47.032;8.310;2022-09-09T04:40:11;14.00;99.90
46085;DHT22;31823;47.032;8.310;2022-09-09T04:42:37;14.00;99.90
46085;DHT22;31823;47.032;8.310;2022-09-09T04:45:03;14.00;99.90
46085;DHT22;31823;47.032;8.310;2022-09-09T04:47:28;13.80;99.90
46085;DHT22;31823;47.032;8.310;2022-09-09T04:49:54;13.90;99.90
46085;DHT22;31823;47.032;8.310;2022-09-09T04:52:20;14.00;99.90
46085;DHT22;31823;47.032;8.310;2022-09-09T04:54:46;14.00;99.90
46085;DHT22;31823;47.032;8.310;2022-09-09T04:57:13;14.00;99.90
46085;DHT22;31823;47.032;8.310;2022-09-09T04:59:38;14.00;99.90
46085;DHT22;31823;47.032;8.310;2022-09-09T05:02:05;14.00;99.90
46085;DHT22;31823;47.032;8.310;2022-09-09T05:04:31;14.00;99.90
46085;DHT22;31823;47.032;8.310;2022-09-09T05:06:56;14.00;99.90
46085;DHT22;31823;47.032;8.310;2022-09-09T05:09:22;14.00;99.90
46085;DHT22;31823;47.032;8.310;2022-09-09T05:11:48;13.90;99.90
46085;DHT22;31823;47.032;8.310;2022-09-09T05:14:14;13.80;99.90
46085;DHT22;31823;47.032;8.310;2022-09-09T05:16:40;14.00;99.90
46085;DHT22;31823;47.032;8.310;2022-09-09T05:19:06;13.90;99.90
46085;DHT22;31823;47.032;8.310;2022-09-09T05:21:33;13.90;99.90
46085;DHT22;31823;47.032;8.310;2022-09-09T05:23:59;13.90;99.90
46085;DHT22;31823;47.032;8.310;2022-09-09T05:26:26;13.90;99.90
46085;DHT22;31823;47.032;8.310;2022-09-09T05:28:52;14.00;99.90
46085;DHT22;31823;47.032;8.310;2022-09-09T05:31:18;13.90;99.90
46085;DHT22;31823;47.032;8.310;2022-09-09T05:33:46;13.80;99.90
46085;DHT22;31823;47.032;8.310;2022-09-09T05:36:22;13.80;99.90
46085;DHT22;31823;47.032;8.310;2022-09-09T05:38:48;13.80;99.90
46085;DHT22;31823;47.032;8.310;2022-09-09T05:41:15;13.90;99.90
46085;DHT22;31823;47.032;8.310;2022-09-09T05:43:42;13.90;99.90
46085;DHT22;31823;47.032;8.310;2022-09-09T05:46:15;13.80;99.90
46085;DHT22;31823;47.032;8.310;2022-09-09T05:48:43;13.90;99.90
46085;DHT22;31823;47.032;8.310;2022-09-09T05:51:16;14.00;99.90
46085;DHT22;31823;47.032;8.310;2022-09-09T05:53:43;14.00;99.90
46085;DHT22;31823;47.032;8.310;2022-09-09T05:56:17;14.00;99.90
46085;DHT22;31823;47.032;8.310;2022-09-09T05:58:44;14.00;99.90
46085;DHT22;31823;47.032;8.310;2022-09-09T06:01:11;14.00;99.90
46085;DHT22;31823;47.032;8.310;2022-09-09T06:03:39;14.00;99.90
46085;DHT22;31823;47.032;8.310;2022-09-09T06:06:07;14.10;99.90
46085;DHT22;31823;47.032;8.310;2022-09-09T06:08:34;14.00;99.90
46085;DHT22;31823;47.032;8.310;2022-09-09T06:11:08;14.00;99.90
46085;DHT22;31823;47.032;8.310;2022-09-09T06:13:34;13.90;99.90
46085;DHT22;31823;47.032;8.310;2022-09-09T06:16:00;13.90;99.90
46085;DHT22;31823;47.032;8.310;2022-09-09T06:18:26;14.00;99.90
46085;DHT22;31823;47.032;8.310;2022-09-09T06:23:21;14.00;99.90
46085;DHT22;31823;47.032;8.310;2022-09-09T06:25:47;14.10;99.90
46085;DHT22;31823;47.032;8.310;2022-09-09T06:28:14;14.10;99.90
46085;DHT22;31823;47.032;8.310;2022-09-09T06:30:40;14.10;99.90
46085;DHT22;31823;47.032;8.310;2022-09-09T06:33:06;14.10;99.90
46085;DHT22;31823;47.032;8.310;2022-09-09T06:35:32;14.20;99.90
46085;DHT22;31823;47.032;8.310;2022-09-09T06:37:58;14.30;99.90
46085;DHT22;31823;47.032;8.310;2022-09-09T06:40:24;14.30;99.90
46085;DHT22;31823;47.032;8.310;2022-09-09T06:42:50;14.20;99.90
46085;DHT22;31823;47.032;8.310;2022-09-09T06:45:16;14.30;99.90
46085;DHT22;31823;47.032;8.310;2022-09-09T06:47:42;14.30;99.90
46085;DHT22;31823;47.032;8.310;2022-09-09T06:50:08;14.40;99.90
46085;DHT22;31823;47.032;8.310;2022-09-09T06:52:36;14.50;99.90
46085;DHT22;31823;47.032;8.310;2022-09-09T06:55:02;14.70;99.90
46085;DHT22;31823;47.032;8.310;2022-09-09T06:57:28;15.00;99.90
46085;DHT22;31823;47.032;8.310;2022-09-09T06:59:53;15.00;99.90
46085;DHT22;31823;47.032;8.310;2022-09-09T07:02:19;15.00;99.90
46085;DHT22;31823;47.032;8.310;2022-09-09T07:04:45;15.00;99.90
46085;DHT22;31823;47.032;8.310;2022-09-09T07:07:10;15.10;99.90
46085;DHT22;31823;47.032;8.310;2022-09-09T07:09:39;15.50;99.90
46085;DHT22;31823;47.032;8.310;2022-09-09T07:12:05;15.40;99.90
46085;DHT22;31823;47.032;8.310;2022-09-09T07:14:32;15.60;99.90
46085;DHT22;31823;47.032;8.310;2022-09-09T07:16:59;15.60;99.90
46085;DHT22;31823;47.032;8.310;2022-09-09T07:19:25;15.60;99.90
46085;DHT22;31823;47.032;8.310;2022-09-09T07:21:51;15.60;99.90
46085;DHT22;31823;47.032;8.310;2022-09-09T07:24:16;15.60;99.90
46085;DHT22;31823;47.032;8.310;2022-09-09T07:26:42;15.50;99.90
46085;DHT22;31823;47.032;8.310;2022-09-09T07:29:09;15.40;99.90
46085;DHT22;31823;47.032;8.310;2022-09-09T07:31:37;15.40;99.90
46085;DHT22;31823;47.032;8.310;2022-09-09T07:34:04;15.40;99.90
46085;DHT22;31823;47.032;8.310;2022-09-09T07:36:32;15.50;99.90
46085;DHT22;31823;47.032;8.310;2022-09-09T07:39:00;15.60;99.90
46085;DHT22;31823;47.032;8.310;2022-09-09T07:41:35;15.50;99.90
46085;DHT22;31823;47.032;8.310;2022-09-09T07:44:06;15.30;99.90
46085;DHT22;31823;47.032;8.310;2022-09-09T07:46:32;15.20;99.90
46085;DHT22;31823;47.032;8.310;2022-09-09T07:48:59;15.30;99.90
46085;DHT22;31823;47.032;8.310;2022-09-09T07:51:29;15.40;99.90
46085;DHT22;31823;47.032;8.310;2022-09-09T07:53:56;15.40;99.90
46085;DHT22;31823;47.032;8.310;2022-09-09T07:56:24;15.70;99.90
46085;DHT22;31823;47.032;8.310;2022-09-09T07:58:51;15.60;99.90
46085;DHT22;31823;47.032;8.310;2022-09-09T08:01:24;15.60;99.90
46085;DHT22;31823;47.032;8.310;2022-09-09T08:03:56;15.50;99.90
46085;DHT22;31823;47.032;8.310;2022-09-09T08:06:25;15.60;99.90
46085;DHT22;31823;47.032;8.310;2022-09-09T08:08:52;16.40;99.90
46085;DHT22;31823;47.032;8.310;2022-09-09T08:11:18;16.90;99.90
46085;DHT22;31823;47.032;8.310;2022-09-09T08:13:44;17.20;99.90
46085;DHT22;31823;47.032;8.310;2022-09-09T08:16:18;17.90;99.90
46085;DHT22;31823;47.032;8.310;2022-09-09T08:18:47;18.00;99.90
46085;DHT22;31823;47.032;8.310;2022-09-09T08:21:15;18.50;99.90
46085;DHT22;31823;47.032;8.310;2022-09-09T08:23:45;18.30;99.90
46085;DHT22;31823;47.032;8.310;2022-09-09T08:26:20;18.80;99.90
46085;DHT22;31823;47.032;8.310;2022-09-09T08:28:48;18.90;99.90
46085;DHT22;31823;47.032;8.310;2022-09-09T08:31:20;19.40;99.90
46085;DHT22;31823;47.032;8.310;2022-09-09T08:33:47;18.80;99.90
46085;DHT22;31823;47.032;8.310;2022-09-09T08:36:18;18.30;99.90
46085;DHT22;31823;47.032;8.310;2022-09-09T08:38:48;17.50;99.90
46085;DHT22;31823;47.032;8.310;2022-09-09T08:44:13;17.30;99.90
46085;DHT22;31823;47.032;8.310;2022-09-09T08:54:50;18.30;99.90
46085;DHT22;31823;47.032;8.310;2022-09-09T08:57:24;18.20;99.90
46085;DHT22;31823;47.032;8.310;2022-09-09T08:59:54;18.20;99.90
46085;DHT22;31823;47.032;8.310;2022-09-09T09:10:50;17.90;99.90
46085;DHT22;31823;47.032;8.310;2022-09-09T09:18:48;18.40;99.90
46085;DHT22;31823;47.032;8.310;2022-09-09T09:21:41;18.90;99.90
46085;DHT22;31823;47.032;8.310;2022-09-09T09:26:52;18.60;99.90
46085;DHT22;31823;47.032;8.310;2022-09-09T09:29:19;18.80;99.90
46085;DHT22;31823;47.032;8.310;2022-09-09T09:31:51;18.90;99.90
46085;DHT22;31823;47.032;8.310;2022-09-09T09:34:17;18.80;99.90
46085;DHT22;31823;47.032;8.310;2022-09-09T09:36:46;18.90;99.90
46085;DHT22;31823;47.032;8.310;2022-09-09T09:39:31;18.80;99.90
46085;DHT22;31823;47.032;8.310;2022-09-09T09:42:16;18.60;99.90
46085;DHT22;31823;47.032;8.310;2022-09-09T09:44:42;17.80;99.90
46085;DHT22;31823;47.032;8.310;2022-09-09T09:47:21;17.00;99.90
46085;DHT22;31823;47.032;8.310;2022-09-09T09:49:53;16.60;99.90
46085;DHT22;31823;47.032;8.310;2022-09-09T09:52:24;16.50;99.90
46085;DHT22;31823;47.032;8.310;2022-09-09T09:54:51;16.70;99.90
46085;DHT22;31823;47.032;8.310;2022-09-09T09:57:18;17.00;99.90
46085;DHT22;31823;47.032;8.310;2022-09-09T09:59:48;17.20;99.90
46085;DHT22;31823;47.032;8.310;2022-09-09T10:04:43;17.80;99.90
46085;DHT22;31823;47.032;8.310;2022-09-09T10:07:18;17.90;99.90
46085;DHT22;31823;47.032;8.310;2022-09-09T10:09:45;18.30;99.90
46085;DHT22;31823;47.032;8.310;2022-09-09T10:20:41;19.20;99.90
46085;DHT22;31823;47.032;8.310;2022-09-09T10:26:38;20.20;99.90
46085;DHT22;31823;47.032;8.310;2022-09-09T10:29:35;20.00;99.90
46085;DHT22;31823;47.032;8.310;2022-09-09T10:37:41;19.90;99.90
46085;DHT22;31823;47.032;8.310;2022-09-09T10:51:07;21.30;99.90
46085;DHT22;31823;47.032;8.310;2022-09-09T10:56:16;20.50;99.90
46085;DHT22;31823;47.032;8.310;2022-09-09T10:59:04;20.10;99.90
46085;DHT22;31823;47.032;8.310;2022-09-09T11:01:37;20.10;99.90
46085;DHT22;31823;47.032;8.310;2022-09-09T11:06:54;19.90;99.90
46085;DHT22;31823;47.032;8.310;2022-09-09T11:09:35;20.40;99.90
46085;DHT22;31823;47.032;8.310;2022-09-09T11:12:02;20.50;99.90
46085;DHT22;31823;47.032;8.310;2022-09-09T11:14:45;20.70;99.90
46085;DHT22;31823;47.032;8.310;2022-09-09T11:17:19;20.90;99.90
46085;DHT22;31823;47.032;8.310;2022-09-09T11:19:46;20.90;99.90
46085;DHT22;31823;47.032;8.310;2022-09-09T11:22:34;20.70;99.90
46085;DHT22;31823;47.032;8.310;2022-09-09T11:25:23;20.60;99.90
46085;DHT22;31823;47.032;8.310;2022-09-09T11:38:47;20.50;99.90
46085;DHT22;31823;47.032;8.310;2022-09-09T11:41:16;20.30;99.90
46085;DHT22;31823;47.032;8.310;2022-09-09T11:43:47;20.10;99.90
46085;DHT22;31823;47.032;8.310;2022-09-09T11:46:16;20.00;99.90
46085;DHT22;31823;47.032;8.310;2022-09-09T11:48:44;20.10;99.90
46085;DHT22;31823;47.032;8.310;2022-09-09T11:51:33;20.20;99.90
46085;DHT22;31823;47.032;8.310;2022-09-09T11:56:48;19.50;99.90
46085;DHT22;31823;47.032;8.310;2022-09-09T11:59:26;20.10;99.90
46085;DHT22;31823;47.032;8.310;2022-09-09T12:02:18;19.70;99.90
46085;DHT22;31823;47.032;8.310;2022-09-09T12:07:56;20.10;99.90
46085;DHT22;31823;47.032;8.310;2022-09-09T12:10:30;19.80;99.90
46085;DHT22;31823;47.032;8.310;2022-09-09T12:13:18;20.40;99.90
46085;DHT22;31823;47.032;8.310;2022-09-09T12:16:02;20.20;99.90
46085;DHT22;31823;47.032;8.310;2022-09-09T12:18:38;20.60;99.90
46085;DHT22;31823;47.032;8.310;2022-09-09T12:21:32;21.50;99.90
46085;DHT22;31823;47.032;8.310;2022-09-09T12:24:10;22.00;99.90
46085;DHT22;31823;47.032;8.310;2022-09-09T12:32:11;21.20;99.90
46085;DHT22;31823;47.032;8.310;2022-09-09T12:34:40;20.70;99.90
46085;DHT22;31823;47.032;8.310;2022-09-09T12:40:26;20.80;99.90
46085;DHT22;31823;47.032;8.310;2022-09-09T12:42:32;20.50;99.90
46085;DHT22;31823;47.032;8.310;2022-09-09T12:45:03;20.10;99.90
46085;DHT22;31823;47.032;8.310;2022-09-09T12:47:40;19.60;99.90
46085;DHT22;31823;47.032;8.310;2022-09-09T12:50:25;19.60;99.90
46085;DHT22;31823;47.032;8.310;2022-09-09T12:52:56;19.20;99.90
46085;DHT22;31823;47.032;8.310;2022-09-09T12:55:35;18.70;99.90
46085;DHT22;31823;47.032;8.310;2022-09-09T12:58:02;18.90;99.90
46085;DHT22;31823;47.032;8.310;2022-09-09T13:00:33;20.00;99.90
46085;DHT22;31823;47.032;8.310;2022-09-09T13:03:14;21.40;99.90
46085;DHT22;31823;47.032;8.310;2022-09-09T13:05:41;22.10;99.90
46085;DHT22;31823;47.032;8.310;2022-09-09T13:08:12;23.00;99.90
46085;DHT22;31823;47.032;8.310;2022-09-09T13:10:54;22.90;99.90
46085;DHT22;31823;47.032;8.310;2022-09-09T13:13:31;22.90;99.90
46085;DHT22;31823;47.032;8.310;2022-09-09T13:16:01;23.10;99.90
46085;DHT22;31823;47.032;8.310;2022-09-09T13:18:33;23.10;99.90
46085;DHT22;31823;47.032;8.310;2022-09-09T13:20:59;23.00;96.30
46085;DHT22;31823;47.032;8.310;2022-09-09T13:23:31;22.70;98.80
46085;DHT22;31823;47.032;8.310;2022-09-09T13:25:59;22.30;97.00
46085;DHT22;31823;47.032;8.310;2022-09-09T13:28:28;21.80;99.60
46085;DHT22;31823;47.032;8.310;2022-09-09T13:31:03;21.20;99.90
46085;DHT22;31823;47.032;8.310;2022-09-09T13:33:39;21.20;99.90
46085;DHT22;31823;47.032;8.310;2022-09-09T13:36:07;21.00;99.90
46085;DHT22;31823;47.032;8.310;2022-09-09T13:38:57;21.90;99.90
46085;DHT22;31823;47.032;8.310;2022-09-09T13:41:24;23.10;99.90
46085;DHT22;31823;47.032;8.310;2022-09-09T13:43:51;23.60;98.80
46085;DHT22;31823;47.032;8.310;2022-09-09T13:51:42;23.50;99.50
46085;DHT22;31823;47.032;8.310;2022-09-09T13:54:11;23.60;98.50
46085;DHT22;31823;47.032;8.310;2022-09-09T13:56:39;23.10;99.90
46085;DHT22;31823;47.032;8.310;2022-09-09T13:59:11;23.10;99.90
46085;DHT22;31823;47.032;8.310;2022-09-09T14:01:37;23.10;99.90
46085;DHT22;31823;47.032;8.310;2022-09-09T14:04:03;23.20;99.20
46085;DHT22;31823;47.032;8.310;2022-09-09T14:06:30;23.40;99.30
46085;DHT22;31823;47.032;8.310;2022-09-09T14:08:57;23.50;99.90
46085;DHT22;31823;47.032;8.310;2022-09-09T14:11:23;23.70;95.80
46085;DHT22;31823;47.032;8.310;2022-09-09T14:13:49;23.70;97.10
46085;DHT22;31823;47.032;8.310;2022-09-09T14:16:16;24.30;93.60
46085;DHT22;31823;47.032;8.310;2022-09-09T14:18:43;24.10;92.50
46085;DHT22;31823;47.032;8.310;2022-09-09T14:21:09;23.30;96.10
46085;DHT22;31823;47.032;8.310;2022-09-09T14:23:35;23.60;98.90
46085;DHT22;31823;47.032;8.310;2022-09-09T14:26:00;24.60;92.30
46085;DHT22;31823;47.032;8.310;2022-09-09T14:28:26;23.90;92.30
46085;DHT22;31823;47.032;8.310;2022-09-09T14:30:53;24.00;94.00
46085;DHT22;31823;47.032;8.310;2022-09-09T14:33:19;24.20;92.30
46085;DHT22;31823;47.032;8.310;2022-09-09T14:35:44;23.90;91.50
46085;DHT22;31823;47.032;8.310;2022-09-09T14:38:10;23.70;91.40
46085;DHT22;31823;47.032;8.310;2022-09-09T14:40:39;23.90;90.40
46085;DHT22;31823;47.032;8.310;2022-09-09T14:43:05;23.90;89.70
46085;DHT22;31823;47.032;8.310;2022-09-09T14:45:31;24.20;89.00
46085;DHT22;31823;47.032;8.310;2022-09-09T14:47:57;24.20;87.90
46085;DHT22;31823;47.032;8.310;2022-09-09T14:50:23;24.20;87.90
46085;DHT22;31823;47.032;8.310;2022-09-09T14:52:49;24.00;88.60
46085;DHT22;31823;47.032;8.310;2022-09-09T14:55:16;23.40;88.30
46085;DHT22;31823;47.032;8.310;2022-09-09T14:57:42;22.70;90.30
46085;DHT22;31823;47.032;8.310;2022-09-09T15:00:09;23.10;88.20
46085;DHT22;31823;47.032;8.310;2022-09-09T15:02:36;23.40;87.00
46085;DHT22;31823;47.032;8.310;2022-09-09T15:05:02;23.70;86.90
46085;DHT22;31823;47.032;8.310;2022-09-09T15:07:28;23.50;85.90
46085;DHT22;31823;47.032;8.310;2022-09-09T15:09:54;23.80;86.20
46085;DHT22;31823;47.032;8.310;2022-09-09T15:12:20;23.70;86.20
46085;DHT22;31823;47.032;8.310;2022-09-09T15:14:46;23.50;85.40
46085;DHT22;31823;47.032;8.310;2022-09-09T15:17:12;23.70;87.30
46085;DHT22;31823;47.032;8.310;2022-09-09T15:19:39;22.70;82.70
46085;DHT22;31823;47.032;8.310;2022-09-09T15:22:05;22.60;84.60
46085;DHT22;31823;47.032;8.310;2022-09-09T15:24:34;22.80;88.10
46085;DHT22;31823;47.032;8.310;2022-09-09T15:27:01;22.10;89.70
46085;DHT22;31823;47.032;8.310;2022-09-09T15:29:27;21.90;90.60
46085;DHT22;31823;47.032;8.310;2022-09-09T15:31:56;21.70;87.00
46085;DHT22;31823;47.032;8.310;2022-09-09T15:34:21;21.90;84.50
46085;DHT22;31823;47.032;8.310;2022-09-09T15:36:48;22.40;82.60
46085;DHT22;31823;47.032;8.310;2022-09-09T15:39:16;22.20;83.30
46085;DHT22;31823;47.032;8.310;2022-09-09T15:41:43;22.00;83.90
46085;DHT22;31823;47.032;8.310;2022-09-09T15:44:09;22.10;84.40
46085;DHT22;31823;47.032;8.310;2022-09-09T15:46:50;21.60;85.70
46085;DHT22;31823;47.032;8.310;2022-09-09T15:49:18;21.60;85.40
46085;DHT22;31823;47.032;8.310;2022-09-09T15:51:46;21.80;87.60
46085;DHT22;31823;47.032;8.310;2022-09-09T15:54:17;22.10;85.50
46085;DHT22;31823;47.032;8.310;2022-09-09T15:56:44;22.00;84.10
46085;DHT22;31823;47.032;8.310;2022-09-09T15:59:10;21.80;85.70
46085;DHT22;31823;47.032;8.310;2022-09-09T16:01:37;21.70;85.80
46085;DHT22;31823;47.032;8.310;2022-09-09T16:04:05;21.80;85.90
46085;DHT22;31823;47.032;8.310;2022-09-09T16:06:31;21.70;85.10
46085;DHT22;31823;47.032;8.310;2022-09-09T16:08:59;21.60;85.60
46085;DHT22;31823;47.032;8.310;2022-09-09T16:11:31;21.60;88.20
46085;DHT22;31823;47.032;8.310;2022-09-09T16:13:58;21.30;88.40
46085;DHT22;31823;47.032;8.310;2022-09-09T16:16:25;21.50;86.60
46085;DHT22;31823;47.032;8.310;2022-09-09T16:18:54;21.50;88.50
46085;DHT22;31823;47.032;8.310;2022-09-09T16:21:25;21.40;85.90
46085;DHT22;31823;47.032;8.310;2022-09-09T16:23:52;21.20;90.50
46085;DHT22;31823;47.032;8.310;2022-09-09T16:26:22;20.40;99.90
46085;DHT22;31823;47.032;8.310;2022-09-09T16:28:49;20.10;92.30
46085;DHT22;31823;47.032;8.310;2022-09-09T16:31:19;19.20;99.90
46085;DHT22;31823;47.032;8.310;2022-09-09T16:33:46;20.40;92.60
46085;DHT22;31823;47.032;8.310;2022-09-09T16:36:15;20.80;91.20
46085;DHT22;31823;47.032;8.310;2022-09-09T16:38:41;20.40;99.90
46085;DHT22;31823;47.032;8.310;2022-09-09T16:41:10;19.10;99.90
46085;DHT22;31823;47.032;8.310;2022-09-09T16:43:36;20.10;94.20
46085;DHT22;31823;47.032;8.310;2022-09-09T16:46:16;19.20;99.90
46085;DHT22;31823;47.032;8.310;2022-09-09T16:48:44;19.90;92.40
46085;DHT22;31823;47.032;8.310;2022-09-09T16:51:16;20.30;91.30
46085;DHT22;31823;47.032;8.310;2022-09-09T16:53:43;20.20;98.60
46085;DHT22;31823;47.032;8.310;2022-09-09T16:56:22;18.20;99.90
46085;DHT22;31823;47.032;8.310;2022-09-09T16:58:51;17.60;99.90
46085;DHT22;31823;47.032;8.310;2022-09-09T17:01:17;17.30;99.90
46085;DHT22;31823;47.032;8.310;2022-09-09T17:03:43;17.20;99.90
46085;DHT22;31823;47.032;8.310;2022-09-09T17:06:14;17.30;99.90
46085;DHT22;31823;47.032;8.310;2022-09-09T17:08:41;18.10;99.70
46085;DHT22;31823;47.032;8.310;2022-09-09T17:11:17;18.10;99.90
46085;DHT22;31823;47.032;8.310;2022-09-09T17:13:44;17.50;99.90
46085;DHT22;31823;47.032;8.310;2022-09-09T17:16:12;19.10;97.20
46085;DHT22;31823;47.032;8.310;2022-09-09T17:18:38;19.70;95.20
46085;DHT22;31823;47.032;8.310;2022-09-09T17:21:06;19.70;94.60
46085;DHT22;31823;47.032;8.310;2022-09-09T17:23:34;19.60;94.70
46085;DHT22;31823;47.032;8.310;2022-09-09T17:26:00;19.60;95.00
46085;DHT22;31823;47.032;8.310;2022-09-09T17:28:26;19.50;95.40
46085;DHT22;31823;47.032;8.310;2022-09-09T17:30:57;19.60;96.20
46085;DHT22;31823;47.032;8.310;2022-09-09T17:33:27;19.30;96.90
46085;DHT22;31823;47.032;8.310;2022-09-09T17:35:57;19.20;97.30
46085;DHT22;31823;47.032;8.310;2022-09-09T17:38:23;19.00;97.30
46085;DHT22;31823;47.032;8.310;2022-09-09T17:40:49;19.00;97.20
46085;DHT22;31823;47.032;8.310;2022-09-09T17:43:16;18.90;97.80
46085;DHT22;31823;47.032;8.310;2022-09-09T17:45:42;18.70;99.20
46085;DHT22;31823;47.032;8.310;2022-09-09T17:48:07;18.70;98.70
46085;DHT22;31823;47.032;8.310;2022-09-09T17:50:33;18.50;99.00
46085;DHT22;31823;47.032;8.310;2022-09-09T17:52:59;18.40;98.70
46085;DHT22;31823;47.032;8.310;2022-09-09T17:55:25;18.40;99.10
46085;DHT22;31823;47.032;8.310;2022-09-09T17:57:50;18.30;98.90
46085;DHT22;31823;47.032;8.310;2022-09-09T18:00:16;18.10;98.60
46085;DHT22;31823;47.032;8.310;2022-09-09T18:02:42;17.90;99.00
46085;DHT22;31823;47.032;8.310;2022-09-09T18:05:08;17.90;99.50
46085;DHT22;31823;47.032;8.310;2022-09-09T18:07:34;17.90;99.90
46085;DHT22;31823;47.032;8.310;2022-09-09T18:10:00;17.70;99.90
46085;DHT22;31823;47.032;8.310;2022-09-09T18:12:26;17.70;99.90
46085;DHT22;31823;47.032;8.310;2022-09-09T18:14:52;17.60;99.90
46085;DHT22;31823;47.032;8.310;2022-09-09T18:17:18;17.60;99.90
46085;DHT22;31823;47.032;8.310;2022-09-09T18:19:44;17.50;99.90
46085;DHT22;31823;47.032;8.310;2022-09-09T18:22:09;17.40;99.90
46085;DHT22;31823;47.032;8.310;2022-09-09T18:24:35;17.50;99.90
46085;DHT22;31823;47.032;8.310;2022-09-09T18:27:01;17.40;99.90